createdAt,value
2019-05-23T00:00:15.445Z,9.55
2019-05-23T00:01:15.245Z,9.52
2019-05-23T00:02:15.395Z,9.53
2019-05-23T00:03:15.247Z,9.44
2019-05-23T00:04:15.337Z,9.38
2019-05-23T00:05:15.216Z,9.42
2019-05-23T00:06:15.282Z,9.41
2019-05-23T00:07:15.179Z,9.37
2019-05-23T00:08:15.259Z,9.42
2019-05-23T00:09:15.186Z,9.31
2019-05-23T00:10:15.239Z,9.34
2019-05-23T00:11:15.164Z,9.26
2019-05-23T00:12:15.201Z,9.26
2019-05-23T00:13:15.106Z,9.31
2019-05-23T00:14:15.201Z,9.23
2019-05-23T00:15:15.145Z,9.27
2019-05-23T00:16:15.136Z,9.24
2019-05-23T00:17:15.074Z,9.26
2019-05-23T00:18:15.131Z,9.22
2019-05-23T00:19:15.054Z,9.15
2019-05-23T00:20:15.141Z,9.17
2019-05-23T00:21:15.056Z,9.16
2019-05-23T00:22:15.054Z,9.16
2019-05-23T00:23:15.021Z,9.19
2019-05-23T00:24:15.121Z,9.16
2019-05-23T00:25:15.022Z,9.13
2019-05-23T00:26:15.114Z,9.22
2019-05-23T00:27:14.971Z,9.08
2019-05-23T00:28:14.984Z,9.10
2019-05-23T00:29:14.936Z,9.04
2019-05-23T00:30:15.020Z,9.06
2019-05-23T00:31:14.933Z,8.93
2019-05-23T00:32:15.010Z,8.96
2019-05-23T00:33:14.897Z,8.93
2019-05-23T00:34:14.931Z,8.97
2019-05-23T00:35:14.879Z,8.94
2019-05-23T00:36:14.975Z,8.89
2019-05-23T00:37:14.861Z,8.86
2019-05-23T00:38:14.954Z,8.91
2019-05-23T00:39:14.896Z,8.79
2019-05-23T00:40:14.873Z,8.80
2019-05-23T00:41:14.839Z,8.85
2019-05-23T00:42:14.893Z,8.83
2019-05-23T00:43:14.779Z,8.85
2019-05-23T00:44:14.946Z,8.80
2019-05-23T00:45:14.786Z,8.79
2019-05-23T00:46:14.805Z,8.76
2019-05-23T00:47:14.763Z,8.70
2019-05-23T00:48:14.819Z,8.71
2019-05-23T00:49:14.721Z,8.78
2019-05-23T00:50:14.833Z,8.71
2019-05-23T00:51:14.713Z,8.67
2019-05-23T00:52:14.787Z,8.65
2019-05-23T00:53:14.676Z,8.60
2019-05-23T00:54:14.786Z,8.64
2019-05-23T00:55:14.648Z,8.61
2019-05-23T00:56:14.709Z,8.64
2019-05-23T00:57:14.625Z,8.63
2019-05-23T00:58:14.717Z,8.63
2019-05-23T00:59:26.486Z,8.61
2019-05-23T01:00:15.598Z,8.54
2019-05-23T01:01:14.706Z,8.54
2019-05-23T01:02:14.618Z,8.54
2019-05-23T01:03:14.620Z,8.58
2019-05-23T01:04:14.568Z,8.50
2019-05-23T01:05:14.648Z,8.58
2019-05-23T01:06:14.548Z,8.49
2019-05-23T01:07:14.669Z,8.43
2019-05-23T01:08:14.522Z,8.45
2019-05-23T01:09:14.551Z,8.46
2019-05-23T01:10:14.490Z,8.46
2019-05-23T01:11:14.599Z,8.39
2019-05-23T01:12:14.517Z,8.46
2019-05-23T01:13:14.595Z,8.36
2019-05-23T01:14:14.450Z,8.39
2019-05-23T01:15:14.495Z,8.42
2019-05-23T01:16:14.424Z,8.37
2019-05-23T01:17:14.563Z,8.37
2019-05-23T01:18:14.422Z,8.31
2019-05-23T01:19:14.431Z,8.36
2019-05-23T01:20:14.383Z,8.34
2019-05-23T01:21:14.466Z,8.39
2019-05-23T01:22:14.394Z,8.28
2019-05-23T01:23:14.486Z,8.31
2019-05-23T01:24:14.346Z,8.29
2019-05-23T01:25:14.375Z,8.31
2019-05-23T01:26:14.322Z,8.27
2019-05-23T01:27:14.391Z,8.27
2019-05-23T01:28:14.326Z,8.20
2019-05-23T01:29:14.402Z,8.18
2019-05-23T01:30:14.296Z,8.13
2019-05-23T01:31:14.316Z,8.10
2019-05-23T01:32:14.251Z,8.10
2019-05-23T01:33:14.371Z,8.14
2019-05-23T01:34:14.242Z,8.10
2019-05-23T01:35:14.336Z,8.12
2019-05-23T01:36:14.208Z,8.06
2019-05-23T01:37:14.251Z,8.12
2019-05-23T01:38:14.195Z,8.07
2019-05-23T01:39:14.291Z,8.03
2019-05-23T01:40:14.167Z,8.06
2019-05-23T01:41:14.327Z,8.04
2019-05-23T01:42:14.169Z,8.00
2019-05-23T01:43:14.213Z,7.95
2019-05-23T01:44:14.145Z,7.92
2019-05-23T01:45:14.234Z,8.00
2019-05-23T01:46:14.129Z,7.96
2019-05-23T01:47:14.204Z,7.92
2019-05-23T01:48:14.132Z,7.88
2019-05-23T01:49:14.130Z,7.88
2019-05-23T01:50:14.056Z,7.84
2019-05-23T01:51:14.173Z,7.84
2019-05-23T01:52:14.035Z,7.77
2019-05-23T01:53:14.064Z,7.79
2019-05-23T01:54:14.108Z,7.74
2019-05-23T01:55:14.061Z,7.79
2019-05-23T01:56:14.001Z,7.85
2019-05-23T01:57:14.098Z,7.74
2019-05-23T01:58:14.177Z,7.70
2019-05-23T01:59:13.980Z,7.69
2019-05-23T02:00:13.969Z,7.73
2019-05-23T02:01:14.004Z,7.55
2019-05-23T02:02:13.937Z,7.54
2019-05-23T02:03:14.006Z,7.60
2019-05-23T02:04:13.968Z,7.52
2019-05-23T02:05:13.969Z,7.51
2019-05-23T02:06:13.874Z,7.52
2019-05-23T02:07:13.940Z,7.52
2019-05-23T02:08:13.885Z,7.50
2019-05-23T02:09:13.993Z,7.50
2019-05-23T02:10:13.986Z,7.47
2019-05-23T02:11:13.867Z,7.50
2019-05-23T02:12:13.812Z,7.48
2019-05-23T02:13:13.881Z,7.50
2019-05-23T02:14:13.830Z,7.45
2019-05-23T02:15:13.891Z,7.47
2019-05-23T02:16:13.799Z,7.51
2019-05-23T02:17:13.816Z,7.48
2019-05-23T02:18:13.745Z,7.44
2019-05-23T02:19:13.990Z,7.39
2019-05-23T02:20:13.724Z,7.44
2019-05-23T02:21:13.830Z,7.34
2019-05-23T02:22:13.706Z,7.42
2019-05-23T02:23:13.748Z,7.44
2019-05-23T02:24:13.711Z,7.48
2019-05-23T02:25:13.761Z,7.37
2019-05-23T02:26:13.658Z,7.37
2019-05-23T02:27:13.774Z,7.39
2019-05-23T02:28:13.655Z,7.44
2019-05-23T02:29:13.707Z,7.34
2019-05-23T02:30:32.103Z,7.29
2019-05-23T02:31:14.618Z,7.36
2019-05-23T02:32:13.701Z,7.30
2019-05-23T02:33:13.590Z,7.34
2019-05-23T02:34:13.641Z,7.32
2019-05-23T02:35:13.556Z,7.30
2019-05-23T02:36:13.625Z,7.32
2019-05-23T02:37:13.551Z,7.32
2019-05-23T02:38:13.640Z,7.30
2019-05-23T02:39:13.521Z,7.27
2019-05-23T02:40:13.581Z,7.24
2019-05-23T02:41:13.501Z,7.29
2019-05-23T02:42:13.577Z,7.27
2019-05-23T02:43:13.479Z,7.23
2019-05-23T02:44:13.584Z,7.29
2019-05-23T02:45:13.571Z,7.18
2019-05-23T02:46:13.492Z,7.18
2019-05-23T02:47:13.444Z,7.19
2019-05-23T02:48:13.501Z,7.21
2019-05-23T02:49:13.412Z,7.15
2019-05-23T02:50:13.549Z,7.24
2019-05-23T02:51:13.386Z,7.14
2019-05-23T02:52:13.424Z,7.16
2019-05-23T02:53:13.384Z,7.14
2019-05-23T02:54:13.466Z,7.18
2019-05-23T02:55:13.384Z,7.15
2019-05-23T02:56:13.463Z,7.07
2019-05-23T02:57:13.358Z,7.11
2019-05-23T02:58:13.365Z,7.07
2019-05-23T02:59:13.307Z,7.14
2019-05-23T03:00:13.419Z,7.15
2019-05-23T03:01:13.282Z,7.07
2019-05-23T03:02:13.295Z,6.99
2019-05-23T03:03:13.268Z,7.04
2019-05-23T03:04:13.313Z,7.05
2019-05-23T03:05:13.268Z,7.00
2019-05-23T03:06:13.324Z,6.90
2019-05-23T03:07:13.223Z,6.96
2019-05-23T03:08:13.232Z,6.90
2019-05-23T03:09:13.203Z,6.94
2019-05-23T03:10:13.300Z,6.94
2019-05-23T03:11:13.211Z,6.97
2019-05-23T03:12:13.362Z,6.90
2019-05-23T03:13:13.154Z,6.90
2019-05-23T03:14:13.175Z,6.97
2019-05-23T03:15:13.141Z,6.89
2019-05-23T03:16:13.221Z,6.91
2019-05-23T03:17:13.110Z,6.91
2019-05-23T03:18:13.203Z,6.94
2019-05-23T03:19:13.087Z,6.93
2019-05-23T03:20:13.145Z,6.90
2019-05-23T03:21:13.108Z,6.83
2019-05-23T03:22:13.132Z,6.81
2019-05-23T03:23:13.074Z,6.81
2019-05-23T03:24:13.147Z,6.82
2019-05-23T03:25:13.027Z,6.76
2019-05-23T03:26:13.086Z,6.79
2019-05-23T03:27:13.001Z,6.78
2019-05-23T03:28:13.068Z,6.75
2019-05-23T03:29:12.986Z,6.76
2019-05-23T03:30:13.127Z,6.78
2019-05-23T03:31:28.442Z,6.81
2019-05-23T03:32:13.967Z,6.71
2019-05-23T03:33:13.022Z,6.71
2019-05-23T03:34:12.925Z,6.73
2019-05-23T03:35:13.070Z,6.75
2019-05-23T03:36:12.941Z,6.73
2019-05-23T03:37:12.965Z,6.75
2019-05-23T03:38:12.876Z,6.75
2019-05-23T03:39:12.937Z,6.75
2019-05-23T03:40:12.856Z,6.75
2019-05-23T03:41:12.984Z,6.73
2019-05-23T03:42:12.877Z,6.72
2019-05-23T03:43:12.869Z,6.73
2019-05-23T03:44:12.830Z,6.76
2019-05-23T03:45:12.891Z,6.72
2019-05-23T03:46:12.806Z,6.69
2019-05-23T03:47:12.930Z,6.72
2019-05-23T03:48:12.783Z,6.68
2019-05-23T03:49:12.807Z,6.72
2019-05-23T03:50:12.755Z,6.65
2019-05-23T03:51:12.826Z,6.71
2019-05-23T03:52:12.769Z,6.72
2019-05-23T03:53:12.843Z,6.63
2019-05-23T03:54:12.707Z,6.73
2019-05-23T03:55:12.760Z,6.75
2019-05-23T03:56:12.684Z,6.65
2019-05-23T03:57:12.802Z,6.68
2019-05-23T03:58:12.705Z,6.76
2019-05-23T03:59:12.775Z,6.73
2019-05-23T04:00:12.646Z,6.71
2019-05-23T04:01:12.700Z,6.75
2019-05-23T04:02:12.636Z,6.75
2019-05-23T04:03:12.713Z,6.78
2019-05-23T04:04:12.626Z,6.78
2019-05-23T04:05:12.726Z,6.82
2019-05-23T04:06:12.580Z,6.83
2019-05-23T04:07:12.657Z,6.83
2019-05-23T04:08:12.578Z,6.83
2019-05-23T04:09:13.589Z,6.89
2019-05-23T04:10:12.538Z,6.91
2019-05-23T04:11:12.551Z,6.87
2019-05-23T04:12:12.524Z,6.93
2019-05-23T04:13:12.711Z,6.91
2019-05-23T04:14:12.488Z,7.00
2019-05-23T04:15:12.588Z,7.05
2019-05-23T04:16:12.477Z,7.12
2019-05-23T04:17:12.537Z,7.11
2019-05-23T04:18:12.442Z,7.15
2019-05-23T04:19:12.538Z,7.09
2019-05-23T04:20:12.444Z,7.12
2019-05-23T04:21:12.529Z,7.15
2019-05-23T04:22:12.451Z,7.23
2019-05-23T04:23:12.464Z,7.23
2019-05-23T04:24:12.378Z,7.23
2019-05-23T04:25:12.451Z,7.34
2019-05-23T04:26:12.381Z,7.33
2019-05-23T04:27:12.469Z,7.36
2019-05-23T04:28:12.365Z,7.44
2019-05-23T04:29:12.403Z,7.42
2019-05-23T04:30:12.333Z,7.44
2019-05-23T04:31:13.390Z,7.50
2019-05-23T04:32:12.290Z,7.45
2019-05-23T04:33:12.429Z,7.48
2019-05-23T04:34:12.265Z,7.50
2019-05-23T04:35:12.346Z,7.62
2019-05-23T04:36:12.263Z,7.58
2019-05-23T04:37:12.325Z,7.69
2019-05-23T04:38:12.251Z,7.69
2019-05-23T04:39:12.649Z,7.76
2019-05-23T04:40:12.239Z,7.77
2019-05-23T04:41:12.290Z,7.91
2019-05-23T04:42:12.180Z,7.74
2019-05-23T04:43:12.293Z,7.89
2019-05-23T04:44:12.167Z,7.77
2019-05-23T04:45:12.173Z,7.89
2019-05-23T04:46:12.138Z,7.95
2019-05-23T04:47:12.183Z,7.94
2019-05-23T04:48:12.160Z,7.96
2019-05-23T04:49:12.222Z,8.00
2019-05-23T04:50:12.109Z,8.03
2019-05-23T04:51:12.223Z,8.03
2019-05-23T04:52:12.074Z,8.07
2019-05-23T04:53:12.154Z,8.04
2019-05-23T04:54:12.132Z,8.10
2019-05-23T04:55:12.153Z,8.09
2019-05-23T04:56:12.049Z,8.12
2019-05-23T04:57:12.051Z,8.14
2019-05-23T04:58:12.263Z,8.12
2019-05-23T04:59:12.097Z,8.09
2019-05-23T05:00:12.004Z,8.10
2019-05-23T05:01:12.085Z,8.21
2019-05-23T05:02:25.696Z,8.17
2019-05-23T05:03:12.958Z,8.12
2019-05-23T05:04:12.057Z,8.22
2019-05-23T05:05:11.969Z,8.27
2019-05-23T05:06:12.009Z,8.25
2019-05-23T05:07:12.046Z,8.29
2019-05-23T05:08:12.189Z,8.42
2019-05-23T05:09:11.939Z,8.37
2019-05-23T05:10:12.019Z,8.39
2019-05-23T05:11:11.876Z,8.39
2019-05-23T05:12:11.981Z,8.47
2019-05-23T05:13:11.871Z,8.50
2019-05-23T05:14:11.892Z,8.49
2019-05-23T05:15:11.929Z,8.46
2019-05-23T05:16:11.875Z,8.54
2019-05-23T05:17:11.800Z,8.61
2019-05-23T05:18:11.901Z,8.64
2019-05-23T05:19:11.792Z,8.68
2019-05-23T05:20:11.846Z,8.63
2019-05-23T05:21:11.780Z,8.73
2019-05-23T05:22:11.846Z,8.78
2019-05-23T05:23:11.749Z,8.85
2019-05-23T05:24:12.156Z,8.82
2019-05-23T05:25:11.753Z,8.98
2019-05-23T05:26:11.762Z,9.00
2019-05-23T05:27:11.693Z,9.01
2019-05-23T05:28:11.765Z,9.06
2019-05-23T05:29:11.682Z,9.06
2019-05-23T05:30:11.829Z,9.13
2019-05-23T05:31:11.662Z,9.16
2019-05-23T05:32:11.699Z,9.23
2019-05-23T05:33:11.628Z,9.26
2019-05-23T05:34:11.713Z,9.30
2019-05-23T05:35:11.680Z,9.32
2019-05-23T05:36:11.759Z,9.40
2019-05-23T05:37:11.605Z,9.38
2019-05-23T05:38:11.634Z,9.52
2019-05-23T05:39:11.574Z,9.56
2019-05-23T05:40:11.686Z,9.65
2019-05-23T05:41:11.552Z,9.70
2019-05-23T05:42:11.658Z,9.71
2019-05-23T05:43:11.514Z,9.77
2019-05-23T05:44:12.009Z,9.85
2019-05-23T05:45:11.677Z,9.92
2019-05-23T05:46:11.630Z,9.89
2019-05-23T05:47:11.506Z,10.02
2019-05-23T05:48:11.592Z,10.04
2019-05-23T05:49:11.445Z,10.07
2019-05-23T05:50:11.539Z,10.16
2019-05-23T05:51:11.471Z,10.22
2019-05-23T05:52:11.535Z,10.18
2019-05-23T05:53:11.424Z,10.28
2019-05-23T05:54:11.473Z,10.31
2019-05-23T05:55:11.409Z,10.38
2019-05-23T05:56:11.511Z,10.44
2019-05-23T05:57:11.378Z,10.47
2019-05-23T05:58:11.464Z,10.54
2019-05-23T05:59:11.361Z,10.66
2019-05-23T06:00:12.978Z,10.66
2019-05-23T06:01:11.399Z,10.66
2019-05-23T06:02:11.401Z,10.70
2019-05-23T06:03:11.366Z,10.83
2019-05-23T06:04:11.510Z,10.90
2019-05-23T06:05:11.285Z,10.95
2019-05-23T06:06:11.356Z,10.98
2019-05-23T06:07:11.253Z,11.01
2019-05-23T06:08:11.330Z,11.08
2019-05-23T06:09:11.244Z,11.08
2019-05-23T06:10:11.344Z,11.24
2019-05-23T06:11:11.261Z,11.19
2019-05-23T06:13:12.358Z,11.23
2019-05-23T06:14:11.268Z,11.41
2019-05-23T06:15:11.175Z,11.41
2019-05-23T06:16:11.325Z,11.46
2019-05-23T06:17:11.147Z,11.54
2019-05-23T06:18:11.152Z,11.59
2019-05-23T06:19:11.127Z,11.67
2019-05-23T06:20:11.235Z,11.78
2019-05-23T06:21:11.240Z,11.87
2019-05-23T06:22:11.249Z,11.88
2019-05-23T06:23:11.090Z,11.98
2019-05-23T06:24:11.133Z,11.98
2019-05-23T06:25:11.394Z,12.11
2019-05-23T06:26:11.155Z,12.11
2019-05-23T06:27:11.072Z,12.19
2019-05-23T06:28:11.053Z,12.25
2019-05-23T06:29:11.019Z,12.29
2019-05-23T06:30:11.075Z,12.29
2019-05-23T06:31:11.030Z,12.37
2019-05-23T06:32:11.113Z,12.46
2019-05-23T06:33:22.608Z,12.51
2019-05-23T06:34:11.953Z,12.62
2019-05-23T06:35:11.122Z,12.66
2019-05-23T06:36:10.963Z,12.71
2019-05-23T06:37:11.055Z,12.79
2019-05-23T06:38:10.957Z,12.81
2019-05-23T06:39:11.052Z,12.92
2019-05-23T06:40:10.892Z,12.91
2019-05-23T06:41:11.068Z,12.89
2019-05-23T06:42:10.901Z,12.89
2019-05-23T06:43:10.986Z,13.04
2019-05-23T06:44:10.856Z,13.09
2019-05-23T06:45:11.047Z,13.04
2019-05-23T06:46:10.833Z,13.21
2019-05-23T06:47:10.890Z,13.21
2019-05-23T06:48:10.831Z,13.22
2019-05-23T06:49:10.890Z,13.28
2019-05-23T06:50:10.793Z,13.38
2019-05-23T06:51:10.866Z,13.44
2019-05-23T06:52:10.812Z,13.48
2019-05-23T06:53:10.850Z,13.59
2019-05-23T06:54:10.740Z,13.68
2019-05-23T06:55:10.838Z,13.79
2019-05-23T06:56:10.717Z,13.83
2019-05-23T06:57:10.775Z,13.99
2019-05-23T06:58:10.724Z,14.09
2019-05-23T06:59:10.748Z,14.11
2019-05-23T07:00:10.691Z,14.12
2019-05-23T07:01:10.772Z,14.24
2019-05-23T07:02:10.653Z,14.30
2019-05-23T07:03:10.802Z,14.41
2019-05-23T07:04:10.645Z,14.49
2019-05-23T07:05:10.797Z,14.54
2019-05-23T07:06:10.620Z,14.46
2019-05-23T07:07:10.713Z,14.64
2019-05-23T07:08:10.617Z,14.72
2019-05-23T07:09:10.617Z,14.80
2019-05-23T07:10:10.591Z,14.86
2019-05-23T07:11:10.654Z,14.93
2019-05-23T07:12:10.554Z,15.03
2019-05-23T07:13:10.693Z,15.09
2019-05-23T07:14:10.531Z,15.11
2019-05-23T07:15:10.557Z,15.20
2019-05-23T07:16:10.515Z,15.30
2019-05-23T07:17:10.677Z,15.22
2019-05-23T07:18:10.544Z,15.37
2019-05-23T07:19:10.630Z,15.41
2019-05-23T07:20:10.469Z,15.49
2019-05-23T07:21:10.509Z,15.51
2019-05-23T07:22:10.477Z,15.58
2019-05-23T07:23:10.513Z,15.56
2019-05-23T07:24:10.438Z,15.74
2019-05-23T07:25:10.560Z,15.74
2019-05-23T07:26:10.410Z,15.78
2019-05-23T07:27:10.443Z,15.81
2019-05-23T07:28:10.390Z,16.03
2019-05-23T07:29:10.512Z,16.03
2019-05-23T07:30:10.353Z,16.13
2019-05-23T07:31:10.363Z,16.14
2019-05-23T07:32:10.328Z,16.23
2019-05-23T07:33:10.415Z,16.17
2019-05-23T07:34:10.384Z,16.29
2019-05-23T07:35:10.398Z,16.16
2019-05-23T07:36:10.297Z,16.27
2019-05-23T07:37:10.426Z,16.30
2019-05-23T07:38:10.266Z,16.37
2019-05-23T07:39:11.618Z,16.33
2019-05-23T07:40:10.272Z,16.36
2019-05-23T07:41:10.363Z,16.45
2019-05-23T07:42:10.228Z,16.42
2019-05-23T07:43:10.253Z,16.57
2019-05-23T07:44:10.280Z,16.52
2019-05-23T07:45:10.262Z,16.59
2019-05-23T07:46:10.178Z,16.57
2019-05-23T07:47:10.273Z,16.69
2019-05-23T07:48:10.167Z,16.69
2019-05-23T07:49:10.240Z,16.70
2019-05-23T07:50:10.132Z,16.80
2019-05-23T07:51:10.234Z,16.75
2019-05-23T07:52:10.152Z,16.84
2019-05-23T07:53:10.207Z,16.87
2019-05-23T07:54:10.151Z,16.85
2019-05-23T07:55:10.187Z,16.99
2019-05-23T07:56:10.090Z,17.09
2019-05-23T07:57:10.151Z,17.15
2019-05-23T07:58:13.454Z,17.28
2019-05-23T07:59:10.144Z,17.39
2019-05-23T08:00:10.050Z,17.35
2019-05-23T08:01:10.089Z,17.35
2019-05-23T08:02:09.996Z,17.42
2019-05-23T08:03:10.075Z,17.46
2019-05-23T08:04:21.031Z,17.55
2019-05-23T08:05:10.996Z,17.51
2019-05-23T08:06:10.003Z,17.60
2019-05-23T08:07:09.949Z,17.65
2019-05-23T08:08:10.207Z,17.79
2019-05-23T08:09:09.917Z,17.79
2019-05-23T08:10:10.063Z,17.81
2019-05-23T08:11:09.931Z,17.76
2019-05-23T08:12:10.057Z,17.86
2019-05-23T08:13:09.903Z,17.87
2019-05-23T08:14:11.971Z,17.91
2019-05-23T08:15:09.895Z,17.91
2019-05-23T08:16:09.980Z,18.01
2019-05-23T08:17:09.832Z,18.11
2019-05-23T08:18:09.871Z,18.17
2019-05-23T08:19:09.858Z,18.21
2019-05-23T08:20:09.960Z,18.13
2019-05-23T08:21:09.823Z,18.25
2019-05-23T08:22:09.909Z,18.36
2019-05-23T08:23:09.772Z,18.36
2019-05-23T08:24:09.810Z,18.44
2019-05-23T08:25:09.777Z,18.44
2019-05-23T08:26:09.868Z,18.44
2019-05-23T08:27:09.730Z,18.50
2019-05-23T08:28:09.844Z,18.44
2019-05-23T08:29:25.418Z,18.44
2019-05-23T08:30:10.747Z,18.49
2019-05-23T08:31:09.800Z,18.54
2019-05-23T08:32:09.669Z,18.56
2019-05-23T08:33:09.792Z,18.62
2019-05-23T08:34:09.673Z,18.66
2019-05-23T08:35:09.691Z,18.68
2019-05-23T08:36:09.663Z,18.71
2019-05-23T08:37:09.699Z,18.82
2019-05-23T08:38:09.598Z,18.79
2019-05-23T08:39:09.720Z,18.90
2019-05-23T08:40:09.577Z,18.91
2019-05-23T08:41:09.699Z,19.01
2019-05-23T08:42:09.598Z,18.97
2019-05-23T08:43:09.635Z,18.96
2019-05-23T08:44:11.575Z,18.96
2019-05-23T08:45:09.653Z,19.10
2019-05-23T08:46:09.537Z,19.10
2019-05-23T08:47:09.561Z,19.21
2019-05-23T08:48:09.501Z,19.15
2019-05-23T08:49:09.575Z,19.20
2019-05-23T08:50:09.470Z,19.27
2019-05-23T08:51:09.520Z,19.25
2019-05-23T08:52:09.459Z,19.25
2019-05-23T08:53:09.504Z,19.32
2019-05-23T08:54:09.458Z,19.35
2019-05-23T08:55:09.518Z,19.47
2019-05-23T08:56:18.486Z,19.58
2019-05-23T08:57:10.409Z,19.76
2019-05-23T08:58:09.451Z,19.71
2019-05-23T08:59:09.427Z,19.83
2019-05-23T09:00:09.451Z,19.76
2019-05-23T09:01:09.396Z,19.78
2019-05-23T09:02:09.456Z,19.78
2019-05-23T09:03:09.347Z,19.71
2019-05-23T09:04:09.369Z,19.75
2019-05-23T09:05:09.311Z,19.67
2019-05-23T09:06:09.442Z,19.95
2019-05-23T09:07:09.295Z,19.87
2019-05-23T09:08:09.296Z,19.92
2019-05-23T09:09:27.899Z,19.92
2019-05-23T09:10:10.250Z,19.94
2019-05-23T09:11:09.333Z,19.87
2019-05-23T09:12:09.259Z,19.98
2019-05-23T09:13:09.331Z,20.13
2019-05-23T09:14:09.223Z,20.08
2019-05-23T09:15:10.312Z,20.23
2019-05-23T09:16:09.190Z,20.22
2019-05-23T09:17:09.405Z,20.19
2019-05-23T09:18:09.163Z,20.22
2019-05-23T09:19:09.286Z,20.35
2019-05-23T09:20:09.201Z,20.35
2019-05-23T09:21:09.179Z,20.22
2019-05-23T09:22:09.155Z,20.30
2019-05-23T09:23:09.198Z,20.34
2019-05-23T09:24:09.113Z,20.40
2019-05-23T09:25:09.210Z,20.54
2019-05-23T09:26:09.082Z,20.60
2019-05-23T09:27:09.502Z,20.46
2019-05-23T09:28:09.064Z,20.64
2019-05-23T09:29:09.133Z,20.66
2019-05-23T09:30:09.037Z,20.78
2019-05-23T09:31:09.152Z,20.75
2019-05-23T09:32:09.065Z,20.78
2019-05-23T09:33:09.063Z,20.76
2019-05-23T09:34:08.988Z,20.79
2019-05-23T09:35:20.570Z,20.72
2019-05-23T09:36:09.969Z,20.72
2019-05-23T09:37:09.026Z,20.61
2019-05-23T09:38:08.983Z,20.79
2019-05-23T09:39:09.062Z,20.78
2019-05-23T09:40:08.929Z,20.81
2019-05-23T09:41:09.035Z,20.93
2019-05-23T09:42:12.060Z,21.12
2019-05-23T09:43:08.952Z,21.13
2019-05-23T09:44:08.879Z,21.28
2019-05-23T09:45:08.954Z,21.30
2019-05-23T09:46:08.860Z,21.28
2019-05-23T09:47:08.999Z,21.22
2019-05-23T09:48:08.895Z,21.34
2019-05-23T09:49:11.335Z,21.36
2019-05-23T09:50:08.821Z,21.36
2019-05-23T09:51:08.917Z,21.48
2019-05-23T09:52:09.603Z,21.33
2019-05-23T09:53:08.938Z,21.43
2019-05-23T09:54:08.780Z,21.59
2019-05-23T09:55:08.860Z,21.55
2019-05-23T09:56:08.758Z,21.66
2019-05-23T09:57:08.969Z,21.59
2019-05-23T09:58:08.849Z,21.68
2019-05-23T09:59:08.835Z,21.58
2019-05-23T10:00:08.767Z,21.59
2019-05-23T10:01:08.795Z,21.64
2019-05-23T10:02:08.696Z,21.45
2019-05-23T10:03:08.819Z,21.49
2019-05-23T10:04:08.763Z,21.63
2019-05-23T10:05:08.839Z,21.66
2019-05-23T10:06:08.645Z,21.82
2019-05-23T10:07:08.733Z,21.82
2019-05-23T10:08:08.823Z,22.01
2019-05-23T10:09:08.701Z,21.96
2019-05-23T10:10:08.689Z,22.01
2019-05-23T10:11:08.710Z,22.19
2019-05-23T10:12:08.632Z,22.24
2019-05-23T10:13:08.729Z,22.31
2019-05-23T10:14:08.566Z,22.49
2019-05-23T10:15:08.643Z,22.60
2019-05-23T10:16:08.614Z,22.85
2019-05-23T10:17:08.550Z,22.82
2019-05-23T10:18:08.748Z,22.84
2019-05-23T10:19:08.569Z,22.85
2019-05-23T10:20:08.536Z,22.81
2019-05-23T10:21:08.587Z,22.69
2019-05-23T10:22:08.472Z,22.74
2019-05-23T10:23:08.812Z,22.76
2019-05-23T10:24:08.508Z,22.67
2019-05-23T10:25:08.524Z,22.61
2019-05-23T10:26:08.467Z,22.59
2019-05-23T10:27:08.516Z,22.69
2019-05-23T10:28:08.467Z,22.67
2019-05-23T10:29:08.497Z,22.69
2019-05-23T10:30:08.415Z,22.91
2019-05-23T10:31:08.449Z,23.01
2019-05-23T10:32:08.375Z,23.04
2019-05-23T10:34:09.526Z,23.16
2019-05-23T10:35:08.404Z,23.34
2019-05-23T10:36:08.315Z,23.35
2019-05-23T10:37:08.384Z,23.31
2019-05-23T10:38:08.304Z,23.31
2019-05-23T10:39:08.428Z,22.88
2019-05-23T10:40:08.280Z,22.75
2019-05-23T10:41:08.431Z,22.86
2019-05-23T10:42:08.298Z,22.86
2019-05-23T10:43:08.332Z,22.91
2019-05-23T10:44:08.233Z,23.03
2019-05-23T10:45:08.408Z,23.18
2019-05-23T10:46:08.248Z,23.19
2019-05-23T10:47:08.256Z,23.21
2019-05-23T10:48:08.185Z,23.31
2019-05-23T10:49:08.298Z,23.32
2019-05-23T10:50:09.947Z,23.16
2019-05-23T10:51:08.482Z,23.06
2019-05-23T10:52:08.141Z,23.21
2019-05-23T10:53:08.190Z,23.19
2019-05-23T10:54:08.154Z,23.18
2019-05-23T10:55:08.238Z,23.29
2019-05-23T10:56:08.109Z,23.35
2019-05-23T10:57:08.248Z,23.35
2019-05-23T10:58:08.106Z,23.15
2019-05-23T10:59:08.285Z,23.11
2019-05-23T11:00:08.070Z,23.26
2019-05-23T11:01:08.455Z,23.21
2019-05-23T11:02:08.042Z,23.25
2019-05-23T11:03:08.059Z,23.34
2019-05-23T11:04:08.185Z,23.47
2019-05-23T11:05:12.732Z,23.67
2019-05-23T11:06:16.363Z,23.78
2019-05-23T11:07:09.005Z,23.79
2019-05-23T11:08:07.966Z,23.74
2019-05-23T11:09:08.032Z,23.69
2019-05-23T11:10:07.985Z,23.72
2019-05-23T11:11:08.025Z,23.82
2019-05-23T11:12:08.343Z,23.75
2019-05-23T11:13:08.032Z,23.87
2019-05-23T11:14:08.867Z,23.86
2019-05-23T11:15:08.991Z,23.79
2019-05-23T11:16:07.904Z,23.78
2019-05-23T11:17:07.974Z,23.79
2019-05-23T11:18:07.874Z,23.97
2019-05-23T11:19:07.991Z,24.02
2019-05-23T11:20:07.878Z,24.08
2019-05-23T11:21:08.008Z,24.09
2019-05-23T11:22:07.834Z,24.12
2019-05-23T11:23:07.993Z,24.23
2019-05-23T11:24:07.817Z,24.18
2019-05-23T11:25:08.070Z,24.11
2019-05-23T11:26:07.793Z,23.99
2019-05-23T11:27:07.853Z,24.14
2019-05-23T11:28:07.891Z,23.96
2019-05-23T11:30:08.915Z,24.05
2019-05-23T11:31:07.873Z,24.18
2019-05-23T11:32:07.733Z,24.36
2019-05-23T11:33:07.754Z,24.52
2019-05-23T11:34:07.726Z,24.61
2019-05-23T11:35:07.777Z,24.64
2019-05-23T11:36:07.715Z,24.46
2019-05-23T11:37:07.791Z,24.41
2019-05-23T11:38:07.676Z,24.53
2019-05-23T11:39:07.702Z,24.55
2019-05-23T11:40:07.633Z,24.44
2019-05-23T11:41:07.748Z,24.51
2019-05-23T11:42:07.610Z,24.34
2019-05-23T11:43:07.748Z,24.08
2019-05-23T11:44:07.612Z,24.06
2019-05-23T11:46:08.751Z,24.23
2019-05-23T11:47:07.792Z,24.44
2019-05-23T11:48:07.664Z,24.37
2019-05-23T11:49:07.707Z,24.05
2019-05-23T11:50:07.656Z,23.87
2019-05-23T11:51:07.738Z,23.77
2019-05-23T11:52:07.578Z,23.78
2019-05-23T11:53:07.507Z,23.77
2019-05-23T11:54:09.700Z,23.99
2019-05-23T11:55:07.502Z,24.12
2019-05-23T11:56:07.562Z,24.21
2019-05-23T11:57:07.506Z,24.29
2019-05-23T11:58:07.431Z,24.23
2019-05-23T11:59:07.538Z,24.19
2019-05-23T12:00:07.414Z,24.26
2019-05-23T12:01:07.700Z,24.39
2019-05-23T12:02:07.481Z,24.59
2019-05-23T12:03:07.456Z,24.75
2019-05-23T12:04:07.440Z,24.66
2019-05-23T12:05:07.541Z,24.61
2019-05-23T12:06:07.344Z,24.80
2019-05-23T12:07:07.544Z,24.82
2019-05-23T12:08:07.321Z,24.77
2019-05-23T12:09:07.504Z,24.60
2019-05-23T12:10:07.332Z,24.75
2019-05-23T12:11:07.735Z,24.87
2019-05-23T12:12:07.332Z,24.92
2019-05-23T12:13:07.524Z,24.98
2019-05-23T12:14:07.258Z,25.05
2019-05-23T12:15:07.547Z,25.27
2019-05-23T12:16:07.260Z,25.51
2019-05-23T12:17:08.712Z,25.48
2019-05-23T12:18:07.210Z,25.36
2019-05-23T12:19:07.594Z,25.27
2019-05-23T12:20:07.201Z,25.39
2019-05-23T12:21:07.501Z,25.53
2019-05-23T12:22:07.218Z,25.64
2019-05-23T12:23:10.968Z,25.72
2019-05-23T12:24:07.201Z,25.78
2019-05-23T12:25:20.875Z,25.82
2019-05-23T12:26:08.118Z,25.78
2019-05-23T12:27:07.195Z,25.63
2019-05-23T12:28:07.172Z,25.48
2019-05-23T12:29:07.555Z,25.27
2019-05-23T12:30:07.090Z,25.08
2019-05-23T12:31:07.563Z,24.89
2019-05-23T12:32:07.082Z,24.77
2019-05-23T12:33:07.544Z,24.86
2019-05-23T12:34:07.060Z,24.99
2019-05-23T12:35:10.938Z,25.09
2019-05-23T12:36:07.092Z,25.27
2019-05-23T12:37:19.077Z,25.39
2019-05-23T12:38:08.024Z,25.07
2019-05-23T12:39:07.091Z,24.89
2019-05-23T12:40:07.028Z,24.68
2019-05-23T12:41:07.027Z,24.68
2019-05-23T12:42:06.960Z,24.67
2019-05-23T12:43:07.078Z,24.66
2019-05-23T12:44:06.963Z,24.66
2019-05-23T12:46:08.172Z,24.66
2019-05-23T12:48:08.122Z,24.56
2019-05-23T12:50:08.051Z,24.63
2019-05-23T12:51:09.324Z,24.74
2019-05-23T12:52:06.881Z,24.63
2019-05-23T12:53:08.358Z,24.70
2019-05-23T12:54:06.843Z,24.60
2019-05-23T12:55:08.577Z,24.61
2019-05-23T12:56:06.832Z,24.60
2019-05-23T12:57:08.557Z,24.60
2019-05-23T12:58:06.831Z,24.63
2019-05-23T12:59:08.642Z,24.49
2019-05-23T13:00:06.804Z,24.46
2019-05-23T13:01:08.687Z,24.51
2019-05-23T13:02:06.755Z,24.59
2019-05-23T13:03:08.706Z,24.41
2019-05-23T13:04:10.117Z,24.61
2019-05-23T13:05:09.132Z,24.66
2019-05-23T13:06:06.717Z,24.61
2019-05-23T13:07:08.831Z,24.83
2019-05-23T13:08:06.732Z,24.90
2019-05-23T13:09:08.979Z,25.07
2019-05-23T13:10:06.658Z,24.93